sensor_id;sensor_type;location;lat;lon;timestamp;P1;durP1;ratioP1;P2;durP2;ratioP2
14872;SDS011;7528;48.576;19.122;2023-04-25T00:03:56;7.15;;;6.55;;
14872;SDS011;7528;48.576;19.122;2023-04-25T00:08:59;7.90;;;7.20;;
14872;SDS011;7528;48.576;19.122;2023-04-25T00:14:02;6.37;;;5.87;;
14872;SDS011;7528;48.576;19.122;2023-04-25T00:19:06;8.97;;;8.17;;
14872;SDS011;7528;48.576;19.122;2023-04-25T00:24:09;7.60;;;6.90;;
14872;SDS011;7528;48.576;19.122;2023-04-25T00:29:13;8.33;;;7.53;;
14872;SDS011;7528;48.576;19.122;2023-04-25T00:34:16;5.40;;;5.00;;
14872;SDS011;7528;48.576;19.122;2023-04-25T00:39:19;4.50;;;4.10;;
14872;SDS011;7528;48.576;19.122;2023-04-25T00:44:23;4.10;;;3.67;;
14872;SDS011;7528;48.576;19.122;2023-04-25T00:49:27;3.03;;;2.72;;
14872;SDS011;7528;48.576;19.122;2023-04-25T00:54:29;3.10;;;2.87;;
14872;SDS011;7528;48.576;19.122;2023-04-25T00:59:34;2.77;;;2.57;;
14872;SDS011;7528;48.576;19.122;2023-04-25T01:04:37;3.37;;;2.70;;
14872;SDS011;7528;48.576;19.122;2023-04-25T01:09:40;4.10;;;2.70;;
14872;SDS011;7528;48.576;19.122;2023-04-25T01:14:45;2.40;;;2.20;;
14872;SDS011;7528;48.576;19.122;2023-04-25T01:19:48;2.40;;;2.20;;
14872;SDS011;7528;48.576;19.122;2023-04-25T01:24:53;2.50;;;2.30;;
14872;SDS011;7528;48.576;19.122;2023-04-25T01:29:56;2.50;;;2.30;;
14872;SDS011;7528;48.576;19.122;2023-04-25T01:34:59;2.70;;;2.50;;
14872;SDS011;7528;48.576;19.122;2023-04-25T01:40:05;2.30;;;2.20;;
14872;SDS011;7528;48.576;19.122;2023-04-25T01:45:09;2.40;;;2.20;;
14872;SDS011;7528;48.576;19.122;2023-04-25T01:50:13;2.37;;;2.03;;
14872;SDS011;7528;48.576;19.122;2023-04-25T01:55:17;2.70;;;2.17;;
14872;SDS011;7528;48.576;19.122;2023-04-25T02:00:30;2.43;;;2.20;;
14872;SDS011;7528;48.576;19.122;2023-04-25T02:05:36;2.43;;;2.23;;
14872;SDS011;7528;48.576;19.122;2023-04-25T02:10:43;2.83;;;2.63;;
14872;SDS011;7528;48.576;19.122;2023-04-25T02:15:53;2.70;;;2.50;;
14872;SDS011;7528;48.576;19.122;2023-04-25T02:20:58;4.37;;;2.67;;
14872;SDS011;7528;48.576;19.122;2023-04-25T02:26:03;2.33;;;2.13;;
14872;SDS011;7528;48.576;19.122;2023-04-25T02:31:05;2.50;;;2.30;;
14872;SDS011;7528;48.576;19.122;2023-04-25T02:36:08;3.63;;;2.60;;
14872;SDS011;7528;48.576;19.122;2023-04-25T02:41:12;2.70;;;2.50;;
14872;SDS011;7528;48.576;19.122;2023-04-25T02:46:15;3.03;;;2.53;;
14872;SDS011;7528;48.576;19.122;2023-04-25T02:51:17;2.83;;;2.63;;
14872;SDS011;7528;48.576;19.122;2023-04-25T02:56:21;2.73;;;2.53;;
14872;SDS011;7528;48.576;19.122;2023-04-25T03:01:26;2.53;;;2.33;;
14872;SDS011;7528;48.576;19.122;2023-04-25T03:06:28;3.57;;;2.80;;
14872;SDS011;7528;48.576;19.122;2023-04-25T03:11:33;2.37;;;2.13;;
14872;SDS011;7528;48.576;19.122;2023-04-25T03:16:35;2.53;;;2.30;;
14872;SDS011;7528;48.576;19.122;2023-04-25T03:21:38;2.07;;;1.80;;
14872;SDS011;7528;48.576;19.122;2023-04-25T03:26:42;2.60;;;2.40;;
14872;SDS011;7528;48.576;19.122;2023-04-25T03:31:44;2.67;;;2.10;;
14872;SDS011;7528;48.576;19.122;2023-04-25T03:36:47;2.17;;;1.70;;
14872;SDS011;7528;48.576;19.122;2023-04-25T03:41:52;1.93;;;1.80;;
14872;SDS011;7528;48.576;19.122;2023-04-25T03:46:55;3.33;;;2.80;;
14872;SDS011;7528;48.576;19.122;2023-04-25T03:51:58;2.50;;;2.30;;
14872;SDS011;7528;48.576;19.122;2023-04-25T03:57:05;1.60;;;1.50;;
14872;SDS011;7528;48.576;19.122;2023-04-25T04:02:12;2.50;;;2.10;;
14872;SDS011;7528;48.576;19.122;2023-04-25T04:07:15;2.37;;;2.00;;
14872;SDS011;7528;48.576;19.122;2023-04-25T04:12:22;2.57;;;2.03;;
14872;SDS011;7528;48.576;19.122;2023-04-25T04:17:25;3.87;;;3.20;;
14872;SDS011;7528;48.576;19.122;2023-04-25T04:22:27;1.93;;;1.60;;
14872;SDS011;7528;48.576;19.122;2023-04-25T04:27:35;3.30;;;3.00;;
14872;SDS011;7528;48.576;19.122;2023-04-25T04:32:57;2.23;;;2.13;;
14872;SDS011;7528;48.576;19.122;2023-04-25T04:38:01;1.60;;;1.50;;
14872;SDS011;7528;48.576;19.122;2023-04-25T04:43:09;2.70;;;2.50;;
14872;SDS011;7528;48.576;19.122;2023-04-25T04:48:32;3.37;;;3.07;;
14872;SDS011;7528;48.576;19.122;2023-04-25T04:53:53;3.23;;;2.93;;
14872;SDS011;7528;48.576;19.122;2023-04-25T04:59:18;2.30;;;2.10;;
14872;SDS011;7528;48.576;19.122;2023-04-25T05:04:52;3.90;;;3.60;;
14872;SDS011;7528;48.576;19.122;2023-04-25T05:10:21;2.20;;;1.80;;
14872;SDS011;7528;48.576;19.122;2023-04-25T05:15:44;1.70;;;1.60;;
14872;SDS011;7528;48.576;19.122;2023-04-25T05:21:01;1.90;;;1.80;;
14872;SDS011;7528;48.576;19.122;2023-04-25T05:26:33;3.93;;;2.70;;
14872;SDS011;7528;48.576;19.122;2023-04-25T05:31:48;3.43;;;1.80;;
14872;SDS011;7528;48.576;19.122;2023-04-25T05:36:51;2.80;;;2.60;;
14872;SDS011;7528;48.576;19.122;2023-04-25T05:41:54;5.33;;;4.93;;
14872;SDS011;7528;48.576;19.122;2023-04-25T05:47:21;1.20;;;1.10;;
14872;SDS011;7528;48.576;19.122;2023-04-25T05:52:44;3.30;;;3.07;;
14872;SDS011;7528;48.576;19.122;2023-04-25T05:57:59;1.30;;;1.20;;
14872;SDS011;7528;48.576;19.122;2023-04-25T06:03:03;1.40;;;1.30;;
14872;SDS011;7528;48.576;19.122;2023-04-25T06:08:07;20.87;;;15.63;;
14872;SDS011;7528;48.576;19.122;2023-04-25T06:13:11;1.83;;;1.50;;
14872;SDS011;7528;48.576;19.122;2023-04-25T06:18:15;1.30;;;1.20;;
14872;SDS011;7528;48.576;19.122;2023-04-25T06:23:18;1.37;;;1.27;;
14872;SDS011;7528;48.576;19.122;2023-04-25T06:28:32;2.50;;;2.30;;
14872;SDS011;7528;48.576;19.122;2023-04-25T06:33:36;1.30;;;1.20;;
14872;SDS011;7528;48.576;19.122;2023-04-25T06:38:39;1.47;;;1.20;;
14872;SDS011;7528;48.576;19.122;2023-04-25T06:43:42;2.13;;;1.40;;
14872;SDS011;7528;48.576;19.122;2023-04-25T06:48:58;2.03;;;1.83;;
14872;SDS011;7528;48.576;19.122;2023-04-25T06:54:00;2.00;;;1.53;;
14872;SDS011;7528;48.576;19.122;2023-04-25T06:59:13;1.50;;;1.23;;
14872;SDS011;7528;48.576;19.122;2023-04-25T07:04:18;2.40;;;1.60;;
14872;SDS011;7528;48.576;19.122;2023-04-25T07:09:27;1.87;;;1.57;;
14872;SDS011;7528;48.576;19.122;2023-04-25T07:14:30;3.20;;;2.90;;
14872;SDS011;7528;48.576;19.122;2023-04-25T07:19:35;2.23;;;2.03;;
14872;SDS011;7528;48.576;19.122;2023-04-25T07:24:40;3.33;;;2.90;;
14872;SDS011;7528;48.576;19.122;2023-04-25T07:29:44;2.53;;;1.90;;
14872;SDS011;7528;48.576;19.122;2023-04-25T07:34:48;3.50;;;1.70;;
14872;SDS011;7528;48.576;19.122;2023-04-25T07:39:51;2.07;;;1.87;;
14872;SDS011;7528;48.576;19.122;2023-04-25T07:44:54;2.60;;;1.90;;
14872;SDS011;7528;48.576;19.122;2023-04-25T07:49:58;4.13;;;1.70;;
14872;SDS011;7528;48.576;19.122;2023-04-25T07:55:01;1.57;;;1.40;;
14872;SDS011;7528;48.576;19.122;2023-04-25T08:00:15;1.40;;;1.30;;
14872;SDS011;7528;48.576;19.122;2023-04-25T08:05:26;3.47;;;1.10;;
14872;SDS011;7528;48.576;19.122;2023-04-25T08:10:35;1.67;;;1.23;;
14872;SDS011;7528;48.576;19.122;2023-04-25T08:15:38;2.47;;;1.15;;
14872;SDS011;7528;48.576;19.122;2023-04-25T08:20:42;2.25;;;1.30;;
14872;SDS011;7528;48.576;19.122;2023-04-25T08:25:47;1.45;;;1.35;;
14872;SDS011;7528;48.576;19.122;2023-04-25T08:30:54;3.83;;;1.42;;
14872;SDS011;7528;48.576;19.122;2023-04-25T08:36:02;1.58;;;1.48;;
14872;SDS011;7528;48.576;19.122;2023-04-25T08:41:06;1.30;;;1.20;;
14872;SDS011;7528;48.576;19.122;2023-04-25T08:46:09;1.88;;;1.27;;
14872;SDS011;7528;48.576;19.122;2023-04-25T08:51:30;1.40;;;1.30;;
14872;SDS011;7528;48.576;19.122;2023-04-25T08:56:35;1.33;;;1.23;;
14872;SDS011;7528;48.576;19.122;2023-04-25T09:01:39;1.50;;;1.40;;
14872;SDS011;7528;48.576;19.122;2023-04-25T09:06:43;3.53;;;2.55;;
14872;SDS011;7528;48.576;19.122;2023-04-25T09:11:46;4.13;;;3.10;;
14872;SDS011;7528;48.576;19.122;2023-04-25T09:16:58;2.38;;;2.17;;
14872;SDS011;7528;48.576;19.122;2023-04-25T09:22:30;2.00;;;1.77;;
14872;SDS011;7528;48.576;19.122;2023-04-25T09:27:33;2.00;;;1.90;;
14872;SDS011;7528;48.576;19.122;2023-04-25T09:32:42;2.22;;;2.03;;
14872;SDS011;7528;48.576;19.122;2023-04-25T09:37:47;0.90;;;0.90;;
14872;SDS011;7528;48.576;19.122;2023-04-25T09:43:09;0.90;;;0.90;;
14872;SDS011;7528;48.576;19.122;2023-04-25T09:48:16;1.17;;;0.90;;
14872;SDS011;7528;48.576;19.122;2023-04-25T09:53:24;0.77;;;0.70;;
14872;SDS011;7528;48.576;19.122;2023-04-25T09:58:55;0.90;;;0.80;;
14872;SDS011;7528;48.576;19.122;2023-04-25T10:03:59;0.82;;;0.82;;
14872;SDS011;7528;48.576;19.122;2023-04-25T10:09:27;0.70;;;0.70;;
14872;SDS011;7528;48.576;19.122;2023-04-25T10:14:34;0.95;;;0.90;;
14872;SDS011;7528;48.576;19.122;2023-04-25T10:19:36;1.90;;;1.00;;
14872;SDS011;7528;48.576;19.122;2023-04-25T10:24:41;0.80;;;0.80;;
14872;SDS011;7528;48.576;19.122;2023-04-25T10:29:44;0.90;;;0.90;;
14872;SDS011;7528;48.576;19.122;2023-04-25T10:34:46;2.58;;;1.45;;
14872;SDS011;7528;48.576;19.122;2023-04-25T10:39:52;1.10;;;1.00;;
14872;SDS011;7528;48.576;19.122;2023-04-25T10:45:01;0.80;;;0.80;;
14872;SDS011;7528;48.576;19.122;2023-04-25T10:50:06;1.02;;;0.93;;
14872;SDS011;7528;48.576;19.122;2023-04-25T10:55:12;1.25;;;0.80;;
14872;SDS011;7528;48.576;19.122;2023-04-25T11:00:17;0.85;;;0.85;;
14872;SDS011;7528;48.576;19.122;2023-04-25T11:05:23;0.70;;;0.70;;
14872;SDS011;7528;48.576;19.122;2023-04-25T11:10:32;0.70;;;0.70;;
14872;SDS011;7528;48.576;19.122;2023-04-25T11:15:35;0.70;;;0.70;;
14872;SDS011;7528;48.576;19.122;2023-04-25T11:20:39;1.05;;;1.00;;
14872;SDS011;7528;48.576;19.122;2023-04-25T11:25:48;0.80;;;0.80;;
14872;SDS011;7528;48.576;19.122;2023-04-25T11:30:52;0.80;;;0.80;;
14872;SDS011;7528;48.576;19.122;2023-04-25T11:35:55;0.70;;;0.70;;
14872;SDS011;7528;48.576;19.122;2023-04-25T11:40:59;0.90;;;0.90;;
14872;SDS011;7528;48.576;19.122;2023-04-25T11:46:06;0.93;;;0.93;;
14872;SDS011;7528;48.576;19.122;2023-04-25T11:51:08;0.80;;;0.80;;
14872;SDS011;7528;48.576;19.122;2023-04-25T11:56:12;0.88;;;0.88;;
14872;SDS011;7528;48.576;19.122;2023-04-25T12:01:24;1.30;;;1.20;;
14872;SDS011;7528;48.576;19.122;2023-04-25T12:06:28;1.65;;;1.55;;
14872;SDS011;7528;48.576;19.122;2023-04-25T12:11:32;1.83;;;1.70;;
14872;SDS011;7528;48.576;19.122;2023-04-25T12:16:42;2.65;;;1.70;;
14872;SDS011;7528;48.576;19.122;2023-04-25T12:21:45;1.75;;;1.60;;
14872;SDS011;7528;48.576;19.122;2023-04-25T12:26:50;1.70;;;1.60;;
14872;SDS011;7528;48.576;19.122;2023-04-25T12:31:55;1.80;;;1.70;;
14872;SDS011;7528;48.576;19.122;2023-04-25T12:36:57;1.85;;;1.75;;
14872;SDS011;7528;48.576;19.122;2023-04-25T12:42:01;1.98;;;1.88;;
14872;SDS011;7528;48.576;19.122;2023-04-25T12:47:04;2.53;;;2.33;;
14872;SDS011;7528;48.576;19.122;2023-04-25T12:52:07;2.40;;;2.20;;
14872;SDS011;7528;48.576;19.122;2023-04-25T12:57:11;2.47;;;1.67;;
14872;SDS011;7528;48.576;19.122;2023-04-25T13:02:14;2.25;;;1.58;;
14872;SDS011;7528;48.576;19.122;2023-04-25T13:07:16;2.30;;;1.73;;
14872;SDS011;7528;48.576;19.122;2023-04-25T13:12:20;1.60;;;1.50;;
14872;SDS011;7528;48.576;19.122;2023-04-25T13:17:23;1.60;;;1.50;;
14872;SDS011;7528;48.576;19.122;2023-04-25T13:22:26;1.50;;;1.40;;
14872;SDS011;7528;48.576;19.122;2023-04-25T13:27:29;1.65;;;1.55;;
14872;SDS011;7528;48.576;19.122;2023-04-25T13:32:33;1.73;;;1.40;;
14872;SDS011;7528;48.576;19.122;2023-04-25T13:37:36;1.60;;;1.50;;
14872;SDS011;7528;48.576;19.122;2023-04-25T13:42:40;1.90;;;1.40;;
14872;SDS011;7528;48.576;19.122;2023-04-25T13:47:44;1.50;;;1.38;;
14872;SDS011;7528;48.576;19.122;2023-04-25T13:52:47;2.15;;;1.50;;
14872;SDS011;7528;48.576;19.122;2023-04-25T13:57:51;2.40;;;1.75;;
14872;SDS011;7528;48.576;19.122;2023-04-25T14:02:53;1.98;;;1.58;;
14872;SDS011;7528;48.576;19.122;2023-04-25T14:07:56;1.90;;;1.70;;
14872;SDS011;7528;48.576;19.122;2023-04-25T14:13:00;1.50;;;1.40;;
14872;SDS011;7528;48.576;19.122;2023-04-25T14:18:03;1.70;;;1.50;;
14872;SDS011;7528;48.576;19.122;2023-04-25T14:23:06;1.30;;;1.20;;
14872;SDS011;7528;48.576;19.122;2023-04-25T14:28:10;1.50;;;1.40;;
14872;SDS011;7528;48.576;19.122;2023-04-25T14:33:12;1.83;;;1.73;;
14872;SDS011;7528;48.576;19.122;2023-04-25T14:38:15;3.55;;;2.47;;
14872;SDS011;7528;48.576;19.122;2023-04-25T14:43:19;1.95;;;1.50;;
14872;SDS011;7528;48.576;19.122;2023-04-25T14:48:21;2.38;;;1.50;;
14872;SDS011;7528;48.576;19.122;2023-04-25T14:53:24;1.48;;;1.20;;
14872;SDS011;7528;48.576;19.122;2023-04-25T14:58:28;2.05;;;1.55;;
14872;SDS011;7528;48.576;19.122;2023-04-25T15:03:31;3.65;;;2.00;;
14872;SDS011;7528;48.576;19.122;2023-04-25T15:08:33;2.55;;;1.73;;
14872;SDS011;7528;48.576;19.122;2023-04-25T15:13:37;2.88;;;1.90;;
14872;SDS011;7528;48.576;19.122;2023-04-25T15:18:40;1.70;;;1.60;;
14872;SDS011;7528;48.576;19.122;2023-04-25T15:23:43;1.85;;;1.38;;
14872;SDS011;7528;48.576;19.122;2023-04-25T15:28:47;1.52;;;1.42;;
14872;SDS011;7528;48.576;19.122;2023-04-25T15:33:50;1.63;;;1.45;;
14872;SDS011;7528;48.576;19.122;2023-04-25T15:38:52;1.70;;;1.60;;
14872;SDS011;7528;48.576;19.122;2023-04-25T15:43:56;1.70;;;1.60;;
14872;SDS011;7528;48.576;19.122;2023-04-25T15:49:01;2.22;;;1.55;;
14872;SDS011;7528;48.576;19.122;2023-04-25T15:54:03;2.00;;;1.50;;
14872;SDS011;7528;48.576;19.122;2023-04-25T15:59:08;1.77;;;1.67;;
14872;SDS011;7528;48.576;19.122;2023-04-25T16:04:10;2.00;;;1.63;;
14872;SDS011;7528;48.576;19.122;2023-04-25T16:09:12;3.53;;;2.00;;
14872;SDS011;7528;48.576;19.122;2023-04-25T16:14:16;2.70;;;2.05;;
14872;SDS011;7528;48.576;19.122;2023-04-25T16:19:18;1.70;;;1.60;;
14872;SDS011;7528;48.576;19.122;2023-04-25T16:24:21;1.80;;;1.70;;
14872;SDS011;7528;48.576;19.122;2023-04-25T16:29:25;1.90;;;1.58;;
14872;SDS011;7528;48.576;19.122;2023-04-25T16:34:28;2.03;;;1.67;;
14872;SDS011;7528;48.576;19.122;2023-04-25T16:39:30;2.17;;;1.88;;
14872;SDS011;7528;48.576;19.122;2023-04-25T16:44:34;3.78;;;1.70;;
14872;SDS011;7528;48.576;19.122;2023-04-25T16:49:36;1.73;;;1.60;;
14872;SDS011;7528;48.576;19.122;2023-04-25T16:54:40;3.50;;;2.30;;
14872;SDS011;7528;48.576;19.122;2023-04-25T16:59:44;2.97;;;1.85;;
14872;SDS011;7528;48.576;19.122;2023-04-25T17:04:47;3.13;;;2.58;;
14872;SDS011;7528;48.576;19.122;2023-04-25T17:09:50;3.00;;;2.40;;
14872;SDS011;7528;48.576;19.122;2023-04-25T17:14:53;22.52;;;15.52;;
14872;SDS011;7528;48.576;19.122;2023-04-25T17:19:56;2.33;;;2.13;;
14872;SDS011;7528;48.576;19.122;2023-04-25T17:24:58;3.03;;;2.42;;
14872;SDS011;7528;48.576;19.122;2023-04-25T17:30:03;2.70;;;2.25;;
14872;SDS011;7528;48.576;19.122;2023-04-25T17:35:07;2.45;;;2.22;;
14872;SDS011;7528;48.576;19.122;2023-04-25T17:40:10;3.25;;;2.60;;
14872;SDS011;7528;48.576;19.122;2023-04-25T17:45:14;5.47;;;2.90;;
14872;SDS011;7528;48.576;19.122;2023-04-25T17:50:17;10.48;;;8.63;;
14872;SDS011;7528;48.576;19.122;2023-04-25T17:55:20;4.10;;;3.70;;
14872;SDS011;7528;48.576;19.122;2023-04-25T18:00:24;2.60;;;2.40;;
14872;SDS011;7528;48.576;19.122;2023-04-25T18:05:27;5.97;;;5.38;;
14872;SDS011;7528;48.576;19.122;2023-04-25T18:10:29;4.50;;;4.10;;
14872;SDS011;7528;48.576;19.122;2023-04-25T18:15:34;3.75;;;3.20;;
14872;SDS011;7528;48.576;19.122;2023-04-25T18:20:37;2.83;;;2.63;;
14872;SDS011;7528;48.576;19.122;2023-04-25T18:25:39;2.92;;;2.72;;
14872;SDS011;7528;48.576;19.122;2023-04-25T18:30:43;7.97;;;7.30;;
14872;SDS011;7528;48.576;19.122;2023-04-25T18:35:46;6.50;;;5.90;;
14872;SDS011;7528;48.576;19.122;2023-04-25T18:40:49;11.97;;;10.97;;
14872;SDS011;7528;48.576;19.122;2023-04-25T18:45:54;6.30;;;5.80;;
14872;SDS011;7528;48.576;19.122;2023-04-25T18:50:56;5.60;;;4.30;;
14872;SDS011;7528;48.576;19.122;2023-04-25T18:55:58;7.13;;;6.43;;
14872;SDS011;7528;48.576;19.122;2023-04-25T19:01:02;7.30;;;6.60;;
14872;SDS011;7528;48.576;19.122;2023-04-25T19:06:05;9.70;;;8.90;;
14872;SDS011;7528;48.576;19.122;2023-04-25T19:11:07;10.67;;;9.63;;
14872;SDS011;7528;48.576;19.122;2023-04-25T19:16:11;24.30;;;22.13;;
14872;SDS011;7528;48.576;19.122;2023-04-25T19:21:14;21.57;;;14.97;;
14872;SDS011;7528;48.576;19.122;2023-04-25T19:26:17;20.80;;;18.27;;
14872;SDS011;7528;48.576;19.122;2023-04-25T19:31:21;11.37;;;10.27;;
14872;SDS011;7528;48.576;19.122;2023-04-25T19:36:23;12.10;;;11.00;;
14872;SDS011;7528;48.576;19.122;2023-04-25T19:41:27;13.20;;;12.00;;
14872;SDS011;7528;48.576;19.122;2023-04-25T19:46:31;12.47;;;11.27;;
14872;SDS011;7528;48.576;19.122;2023-04-25T19:51:35;21.10;;;18.90;;
14872;SDS011;7528;48.576;19.122;2023-04-25T19:56:37;13.93;;;12.40;;
14872;SDS011;7528;48.576;19.122;2023-04-25T20:01:41;14.80;;;13.27;;
14872;SDS011;7528;48.576;19.122;2023-04-25T20:06:44;11.80;;;10.67;;
14872;SDS011;7528;48.576;19.122;2023-04-25T20:11:46;20.17;;;17.20;;
14872;SDS011;7528;48.576;19.122;2023-04-25T20:16:50;17.50;;;15.33;;
14872;SDS011;7528;48.576;19.122;2023-04-25T20:21:53;8.50;;;7.60;;
14872;SDS011;7528;48.576;19.122;2023-04-25T20:26:56;7.13;;;6.43;;
14872;SDS011;7528;48.576;19.122;2023-04-25T20:32:00;6.63;;;6.03;;
14872;SDS011;7528;48.576;19.122;2023-04-25T20:37:02;6.43;;;5.30;;
14872;SDS011;7528;48.576;19.122;2023-04-25T20:42:05;6.13;;;5.50;;
14872;SDS011;7528;48.576;19.122;2023-04-25T20:47:09;7.20;;;5.70;;
14872;SDS011;7528;48.576;19.122;2023-04-25T20:52:11;6.60;;;5.90;;
14872;SDS011;7528;48.576;19.122;2023-04-25T20:57:14;6.43;;;5.40;;
14872;SDS011;7528;48.576;19.122;2023-04-25T21:02:19;10.10;;;8.80;;
14872;SDS011;7528;48.576;19.122;2023-04-25T21:07:21;11.27;;;6.43;;
14872;SDS011;7528;48.576;19.122;2023-04-25T21:12:24;6.27;;;5.70;;
14872;SDS011;7528;48.576;19.122;2023-04-25T21:17:28;7.93;;;6.37;;
14872;SDS011;7528;48.576;19.122;2023-04-25T21:22:30;7.13;;;6.43;;
14872;SDS011;7528;48.576;19.122;2023-04-25T21:27:34;6.67;;;5.97;;
14872;SDS011;7528;48.576;19.122;2023-04-25T21:32:38;6.50;;;5.90;;
14872;SDS011;7528;48.576;19.122;2023-04-25T21:37:43;6.50;;;5.83;;
14872;SDS011;7528;48.576;19.122;2023-04-25T21:42:46;7.10;;;5.90;;
14872;SDS011;7528;48.576;19.122;2023-04-25T21:47:54;8.10;;;6.83;;
14872;SDS011;7528;48.576;19.122;2023-04-25T21:52:56;7.10;;;6.30;;
14872;SDS011;7528;48.576;19.122;2023-04-25T21:57:59;7.10;;;6.47;;
14872;SDS011;7528;48.576;19.122;2023-04-25T22:03:03;6.77;;;6.17;;
14872;SDS011;7528;48.576;19.122;2023-04-25T22:08:05;8.90;;;7.13;;
14872;SDS011;7528;48.576;19.122;2023-04-25T22:13:08;7.43;;;6.70;;
14872;SDS011;7528;48.576;19.122;2023-04-25T22:18:12;6.60;;;6.00;;
14872;SDS011;7528;48.576;19.122;2023-04-25T22:23:15;6.83;;;6.17;;
14872;SDS011;7528;48.576;19.122;2023-04-25T22:28:18;6.70;;;6.00;;
14872;SDS011;7528;48.576;19.122;2023-04-25T22:33:22;6.93;;;6.33;;
14872;SDS011;7528;48.576;19.122;2023-04-25T22:38:25;8.90;;;7.90;;
14872;SDS011;7528;48.576;19.122;2023-04-25T22:43:27;20.83;;;15.10;;
14872;SDS011;7528;48.576;19.122;2023-04-25T22:48:31;12.33;;;8.77;;
14872;SDS011;7528;48.576;19.122;2023-04-25T22:53:34;10.93;;;8.13;;
14872;SDS011;7528;48.576;19.122;2023-04-25T22:58:39;11.47;;;9.10;;
14872;SDS011;7528;48.576;19.122;2023-04-25T23:03:44;10.27;;;8.80;;
14872;SDS011;7528;48.576;19.122;2023-04-25T23:08:46;15.57;;;13.10;;
14872;SDS011;7528;48.576;19.122;2023-04-25T23:13:49;8.53;;;7.73;;
14872;SDS011;7528;48.576;19.122;2023-04-25T23:18:53;29.20;;;20.07;;
14872;SDS011;7528;48.576;19.122;2023-04-25T23:23:55;33.73;;;24.30;;
14872;SDS011;7528;48.576;19.122;2023-04-25T23:28:58;33.20;;;23.43;;
14872;SDS011;7528;48.576;19.122;2023-04-25T23:34:02;13.53;;;11.90;;
14872;SDS011;7528;48.576;19.122;2023-04-25T23:39:05;9.87;;;8.77;;
14872;SDS011;7528;48.576;19.122;2023-04-25T23:44:12;7.77;;;6.90;;
14872;SDS011;7528;48.576;19.122;2023-04-25T23:49:15;9.33;;;8.20;;
14872;SDS011;7528;48.576;19.122;2023-04-25T23:54:18;9.80;;;8.40;;
14872;SDS011;7528;48.576;19.122;2023-04-25T23:59:20;8.70;;;7.80;;
